createdAt,value
2022-10-11T00:01:00.939Z,100
2022-10-11T00:02:02.553Z,100
2022-10-11T00:03:04.302Z,100
2022-10-11T00:04:06.042Z,100
2022-10-11T00:05:07.779Z,100
2022-10-11T00:06:09.643Z,100
2022-10-11T00:07:11.255Z,100
2022-10-11T00:08:12.990Z,100
2022-10-11T00:09:14.714Z,100
2022-10-11T00:10:16.448Z,100
2022-10-11T00:11:18.185Z,100
2022-10-11T00:12:19.939Z,100
2022-10-11T00:13:21.657Z,100
2022-10-11T00:14:23.396Z,100
2022-10-11T00:15:25.136Z,100
2022-10-11T00:16:26.866Z,100
2022-10-11T00:17:28.603Z,100
2022-10-11T00:18:30.434Z,100
2022-10-11T00:19:32.068Z,100
2022-10-11T00:20:33.802Z,100
2022-10-11T00:21:35.543Z,100
2022-10-11T00:22:37.279Z,100
2022-10-11T00:23:39.009Z,100
2022-10-11T00:24:40.745Z,100
2022-10-11T00:25:42.476Z,100
2022-10-11T00:26:46.847Z,100
2022-10-11T00:27:45.957Z,100
2022-10-11T00:28:47.788Z,100
2022-10-11T00:29:49.462Z,100
2022-10-11T00:30:51.180Z,100
2022-10-11T00:31:52.882Z,100
2022-10-11T00:32:54.612Z,100
2022-10-11T00:33:56.339Z,100
2022-10-11T00:34:58.090Z,100
2022-10-11T00:35:59.829Z,100
2022-10-11T00:37:01.566Z,100
2022-10-11T00:38:03.298Z,100
2022-10-11T00:39:05.026Z,100
2022-10-11T00:40:06.758Z,100
2022-10-11T00:41:16.858Z,100
2022-10-11T00:42:10.239Z,100
2022-10-11T00:43:11.965Z,100
2022-10-11T00:44:13.707Z,100
2022-10-11T00:45:15.444Z,100
2022-10-11T00:46:17.170Z,100
2022-10-11T00:47:18.905Z,100
2022-10-11T00:48:20.630Z,100
2022-10-11T00:49:22.372Z,100
2022-10-11T00:50:24.132Z,100
2022-10-11T00:51:25.929Z,100
2022-10-11T00:52:27.569Z,100
2022-10-11T00:53:29.308Z,100
2022-10-11T00:54:31.061Z,100
2022-10-11T00:55:32.785Z,100
2022-10-11T00:56:34.521Z,100
2022-10-11T00:57:36.265Z,100
2022-10-11T00:58:37.997Z,100
2022-10-11T00:59:39.754Z,100
2022-10-11T01:00:41.460Z,100
2022-10-11T01:01:43.272Z,100
2022-10-11T01:02:44.921Z,100
2022-10-11T01:03:46.661Z,100
2022-10-11T01:04:57.321Z,100
2022-10-11T01:05:50.130Z,100
2022-10-11T01:06:51.870Z,100
2022-10-11T01:07:53.620Z,100
2022-10-11T01:08:55.348Z,100
2022-10-11T01:09:57.119Z,100
2022-10-11T01:10:58.812Z,100
2022-10-11T01:12:00.558Z,100
2022-10-11T01:13:02.269Z,100
2022-10-11T01:14:04.010Z,100
2022-10-11T01:15:05.756Z,100
2022-10-11T01:16:07.975Z,100
2022-10-11T01:17:09.219Z,100
2022-10-11T01:18:10.952Z,100
2022-10-11T01:19:12.703Z,100
2022-10-11T01:20:14.414Z,100
2022-10-11T01:21:16.162Z,100
2022-10-11T01:22:17.904Z,100
2022-10-11T01:23:19.623Z,100
2022-10-11T01:24:21.366Z,100
2022-10-11T01:25:23.106Z,100
2022-10-11T01:26:24.833Z,100
2022-10-11T01:27:26.565Z,100
2022-10-11T01:28:28.381Z,100
2022-10-11T01:29:30.060Z,100
2022-10-11T01:30:31.792Z,100
2022-10-11T01:31:33.504Z,100
2022-10-11T01:32:35.238Z,100
2022-10-11T01:33:36.975Z,100
2022-10-11T01:34:38.723Z,100
2022-10-11T01:35:40.443Z,100
2022-10-11T01:36:42.181Z,100
2022-10-11T01:37:43.922Z,100
2022-10-11T01:38:45.666Z,100
2022-10-11T01:39:47.412Z,100
2022-10-11T01:40:49.113Z,100
2022-10-11T01:41:50.858Z,100
2022-10-11T01:42:52.588Z,100
2022-10-11T01:43:54.318Z,100
2022-10-11T01:44:56.065Z,100
2022-10-11T01:45:57.789Z,100
2022-10-11T01:46:59.519Z,100
2022-10-11T01:48:01.253Z,100
2022-10-11T01:49:02.984Z,100
2022-10-11T01:50:04.725Z,100
2022-10-11T01:51:06.464Z,100
2022-10-11T01:52:08.209Z,100
2022-10-11T01:53:09.934Z,100
2022-10-11T01:54:11.664Z,100
2022-10-11T01:55:13.394Z,100
2022-10-11T01:56:15.136Z,100
2022-10-11T01:57:16.877Z,100
2022-10-11T01:58:18.614Z,100
2022-10-11T01:59:20.333Z,100
2022-10-11T02:00:22.069Z,100
2022-10-11T02:01:24.120Z,100
2022-10-11T02:02:25.557Z,100
2022-10-11T02:03:27.289Z,100
2022-10-11T02:04:29.007Z,100
2022-10-11T02:05:30.817Z,100
2022-10-11T02:06:32.489Z,100
2022-10-11T02:07:34.214Z,100
2022-10-11T02:08:35.949Z,100
2022-10-11T02:09:37.695Z,100
2022-10-11T02:10:39.432Z,100
2022-10-11T02:11:41.170Z,100
2022-10-11T02:12:42.888Z,100
2022-10-11T02:13:47.680Z,100
2022-10-11T02:14:46.379Z,100
2022-10-11T02:15:48.099Z,100
2022-10-11T02:16:49.834Z,100
2022-10-11T02:17:51.573Z,100
2022-10-11T02:18:53.325Z,100
2022-10-11T02:19:55.028Z,100
2022-10-11T02:20:56.784Z,100
2022-10-11T02:21:58.515Z,100
2022-10-11T02:23:00.252Z,100
2022-10-11T02:24:01.974Z,100
2022-10-11T02:25:03.731Z,100
2022-10-11T02:26:05.905Z,100
2022-10-11T02:27:07.188Z,100
2022-10-11T02:28:09.074Z,100
2022-10-11T02:29:10.651Z,100
2022-10-11T02:30:12.429Z,100
2022-10-11T02:31:14.135Z,100
2022-10-11T02:32:15.888Z,100
2022-10-11T02:33:17.593Z,100
2022-10-11T02:34:19.354Z,100
2022-10-11T02:35:21.096Z,100
2022-10-11T02:36:22.813Z,100
2022-10-11T02:37:24.566Z,100
2022-10-11T02:38:26.277Z,100
2022-10-11T02:39:28.708Z,100
2022-10-11T02:40:29.755Z,100
2022-10-11T02:41:31.495Z,100
2022-10-11T02:42:33.209Z,100
2022-10-11T02:43:34.958Z,100
2022-10-11T02:44:36.695Z,100
2022-10-11T02:45:38.419Z,100
2022-10-11T02:46:40.164Z,100
2022-10-11T02:47:41.905Z,100
2022-10-11T02:48:43.626Z,100
2022-10-11T02:49:45.355Z,100
2022-10-11T02:50:47.084Z,100
2022-10-11T02:51:48.821Z,100
2022-10-11T02:52:50.566Z,100
2022-10-11T02:53:52.297Z,100
2022-10-11T02:54:54.031Z,100
2022-10-11T02:55:55.768Z,100
2022-10-11T02:56:57.498Z,100
2022-10-11T02:57:59.239Z,100
2022-10-11T02:59:00.974Z,100
2022-10-11T03:00:02.718Z,100
2022-10-11T03:01:04.452Z,100
2022-10-11T03:02:06.300Z,100
2022-10-11T03:03:07.911Z,100
2022-10-11T03:04:09.651Z,100
2022-10-11T03:05:11.382Z,100
2022-10-11T03:06:13.111Z,100
2022-10-11T03:07:14.853Z,100
2022-10-11T03:08:16.610Z,100
2022-10-11T03:09:18.318Z,100
2022-10-11T03:10:20.044Z,100
2022-10-11T03:11:21.792Z,100
2022-10-11T03:12:30.801Z,100
2022-10-11T03:13:25.243Z,100
2022-10-11T03:14:26.988Z,100
2022-10-11T03:15:28.730Z,100
2022-10-11T03:16:30.457Z,100
2022-10-11T03:17:36.586Z,100
2022-10-11T03:18:33.941Z,100
2022-10-11T03:19:35.662Z,100
2022-10-11T03:20:37.413Z,100
2022-10-11T03:21:39.117Z,100
2022-10-11T03:22:40.866Z,100
2022-10-11T03:23:42.651Z,100
2022-10-11T03:24:44.343Z,100
2022-10-11T03:25:46.069Z,100
2022-10-11T03:26:47.817Z,100
2022-10-11T03:27:49.540Z,100
2022-10-11T03:28:51.336Z,100
2022-10-11T03:29:53.003Z,100
2022-10-11T03:30:54.753Z,100
2022-10-11T03:31:56.479Z,100
2022-10-11T03:32:58.201Z,100
2022-10-11T03:33:59.945Z,100
2022-10-11T03:35:01.682Z,100
2022-10-11T03:36:03.689Z,100
2022-10-11T03:37:05.153Z,100
2022-10-11T03:38:10.069Z,100
2022-10-11T03:39:08.627Z,100
2022-10-11T03:40:10.350Z,100
2022-10-11T03:41:12.086Z,100
2022-10-11T03:42:13.840Z,100
2022-10-11T03:43:15.554Z,100
2022-10-11T03:44:17.306Z,100
2022-10-11T03:45:19.040Z,100
2022-10-11T03:46:20.795Z,100
2022-10-11T03:47:22.499Z,100
2022-10-11T03:48:24.244Z,100
2022-10-11T03:49:25.977Z,100
2022-10-11T03:50:27.708Z,100
2022-10-11T03:51:29.441Z,100
2022-10-11T03:52:31.173Z,100
2022-10-11T03:53:32.898Z,100
2022-10-11T03:54:34.642Z,100
2022-10-11T03:55:36.376Z,100
2022-10-11T03:56:38.109Z,100
2022-10-11T03:57:39.834Z,100
2022-10-11T03:58:41.590Z,100
2022-10-11T03:59:43.319Z,100
2022-10-11T04:00:45.048Z,100
2022-10-11T04:01:46.854Z,100
2022-10-11T04:02:48.511Z,100
2022-10-11T04:03:50.279Z,100
2022-10-11T04:04:51.992Z,100
2022-10-11T04:05:53.743Z,100
2022-10-11T04:06:55.450Z,100
2022-10-11T04:07:57.189Z,100
2022-10-11T04:08:58.933Z,100
2022-10-11T04:10:00.650Z,100
2022-10-11T04:11:02.401Z,100
2022-10-11T04:12:04.130Z,100
2022-10-11T04:13:05.875Z,100
2022-10-11T04:14:07.616Z,100
2022-10-11T04:15:09.337Z,100
2022-10-11T04:16:11.068Z,100
2022-10-11T04:17:12.800Z,100
2022-10-11T04:18:14.544Z,100
2022-10-11T04:19:16.275Z,100
2022-10-11T04:20:18.017Z,100
2022-10-11T04:21:19.739Z,100
2022-10-11T04:22:21.477Z,100
2022-10-11T04:23:23.219Z,100
2022-10-11T04:24:24.965Z,100
2022-10-11T04:25:26.677Z,100
2022-10-11T04:26:28.410Z,100
2022-10-11T04:27:30.154Z,100
2022-10-11T04:28:31.985Z,100
2022-10-11T04:29:33.625Z,100
2022-10-11T04:30:35.356Z,100
2022-10-11T04:31:37.085Z,100
2022-10-11T04:32:38.819Z,100
2022-10-11T04:33:40.550Z,100
2022-10-11T04:34:57.748Z,100
2022-10-11T04:35:44.035Z,100
2022-10-11T04:36:49.783Z,100
2022-10-11T04:37:47.483Z,100
2022-10-11T04:38:49.225Z,100
2022-10-11T04:39:50.959Z,100
2022-10-11T04:40:52.692Z,100
2022-10-11T04:41:54.428Z,100
2022-10-11T04:42:56.164Z,100
2022-10-11T04:43:57.912Z,100
2022-10-11T04:44:59.634Z,100
2022-10-11T04:46:01.364Z,100
2022-10-11T04:47:03.117Z,100
2022-10-11T04:48:04.834Z,100
2022-10-11T04:49:06.570Z,100
2022-10-11T04:50:08.291Z,100
2022-10-11T04:51:10.039Z,100
2022-10-11T04:52:11.768Z,100
2022-10-11T04:53:13.514Z,100
2022-10-11T04:54:15.256Z,100
2022-10-11T04:55:16.999Z,100
2022-10-11T04:56:18.717Z,100
2022-10-11T04:57:20.440Z,100
2022-10-11T04:58:22.182Z,100
2022-10-11T04:59:23.924Z,100
2022-10-11T05:00:25.690Z,100
2022-10-11T05:01:27.382Z,100
2022-10-11T05:02:29.231Z,100
2022-10-11T05:03:30.869Z,100
2022-10-11T05:04:32.609Z,100
2022-10-11T05:05:34.318Z,100
2022-10-11T05:06:36.065Z,100
2022-10-11T05:07:37.800Z,100
2022-10-11T05:08:39.541Z,100
2022-10-11T05:09:41.263Z,100
2022-10-11T05:10:44.022Z,100
2022-10-11T05:11:44.750Z,100
2022-10-11T05:12:46.475Z,100
2022-10-11T05:13:48.231Z,100
2022-10-11T05:14:49.952Z,100
2022-10-11T05:15:51.689Z,100
2022-10-11T05:16:53.427Z,100
2022-10-11T05:17:55.157Z,100
2022-10-11T05:18:56.902Z,100
2022-10-11T05:19:58.652Z,100
2022-10-11T05:21:00.353Z,100
2022-10-11T05:22:02.096Z,100
2022-10-11T05:23:03.820Z,100
2022-10-11T05:24:05.559Z,100
2022-10-11T05:25:07.296Z,100
2022-10-11T05:26:09.371Z,100
2022-10-11T05:27:10.775Z,100
2022-10-11T05:28:12.588Z,100
2022-10-11T05:29:14.235Z,100
2022-10-11T05:30:15.989Z,100
2022-10-11T05:31:17.702Z,100
2022-10-11T05:32:19.434Z,100
2022-10-11T05:33:21.179Z,100
2022-10-11T05:34:22.899Z,100
2022-10-11T05:35:24.661Z,100
2022-10-11T05:36:26.363Z,100
2022-10-11T05:37:28.107Z,100
2022-10-11T05:38:29.843Z,100
2022-10-11T05:39:31.576Z,100
2022-10-11T05:40:33.309Z,100
2022-10-11T05:41:35.046Z,100
2022-10-11T05:42:36.782Z,100
2022-10-11T05:43:38.512Z,100
2022-10-11T05:44:40.250Z,100
2022-10-11T05:45:41.981Z,100
2022-10-11T05:46:43.712Z,100
2022-10-11T05:47:45.450Z,100
2022-10-11T05:48:47.187Z,100
2022-10-11T05:49:48.918Z,100
2022-10-11T05:50:50.653Z,100
2022-10-11T05:51:52.401Z,100
2022-10-11T05:52:54.133Z,100
2022-10-11T05:53:55.867Z,100
2022-10-11T05:54:57.610Z,100
2022-10-11T05:55:59.335Z,100
2022-10-11T05:57:01.077Z,100
2022-10-11T05:58:02.820Z,100
2022-10-11T05:59:04.551Z,100
2022-10-11T06:00:06.284Z,100
2022-10-11T06:01:08.071Z,100
2022-10-11T06:02:09.749Z,100
2022-10-11T06:03:11.497Z,100
2022-10-11T06:04:13.225Z,100
2022-10-11T06:05:14.966Z,100
2022-10-11T06:06:16.690Z,100
2022-10-11T06:07:18.424Z,100
2022-10-11T06:08:20.159Z,100
2022-10-11T06:09:21.895Z,100
2022-10-11T06:10:23.660Z,100
2022-10-11T06:11:25.379Z,100
2022-10-11T06:12:27.099Z,100
2022-10-11T06:13:28.833Z,100
2022-10-11T06:14:30.564Z,100
2022-10-11T06:15:32.305Z,100
2022-10-11T06:16:34.048Z,100
2022-10-11T06:17:35.773Z,100
2022-10-11T06:18:37.506Z,100
2022-10-11T06:19:39.260Z,100
2022-10-11T06:20:40.964Z,100
2022-10-11T06:21:42.708Z,100
2022-10-11T06:22:44.431Z,100
2022-10-11T06:23:46.176Z,100
2022-10-11T06:24:47.911Z,100
2022-10-11T06:25:49.656Z,100
2022-10-11T06:26:51.397Z,100
2022-10-11T06:27:53.127Z,100
2022-10-11T06:28:55.007Z,100
2022-10-11T06:29:56.584Z,100
2022-10-11T06:30:58.305Z,100
2022-10-11T06:32:00.040Z,100
2022-10-11T06:33:04.765Z,100
2022-10-11T06:34:03.532Z,100
2022-10-11T06:35:05.269Z,100
2022-10-11T06:36:07.612Z,100
2022-10-11T06:37:08.715Z,100
2022-10-11T06:38:10.455Z,100
2022-10-11T06:39:12.188Z,100
2022-10-11T06:40:13.958Z,100
2022-10-11T06:41:15.658Z,100
2022-10-11T06:42:17.397Z,100
2022-10-11T06:43:19.138Z,100
2022-10-11T06:44:20.886Z,100
2022-10-11T06:45:22.607Z,100
2022-10-11T06:46:24.340Z,100
2022-10-11T06:47:26.062Z,100
2022-10-11T06:48:27.821Z,100
2022-10-11T06:49:29.546Z,100
2022-10-11T06:50:57.815Z,100
2022-10-11T06:51:33.017Z,100
2022-10-11T06:52:34.750Z,100
2022-10-11T06:53:36.477Z,100
2022-10-11T06:54:42.478Z,100
2022-10-11T06:55:39.951Z,100
2022-10-11T06:56:41.675Z,100
2022-10-11T06:57:43.428Z,100
2022-10-11T06:58:45.164Z,100
2022-10-11T06:59:46.898Z,100
2022-10-11T07:00:48.678Z,100
2022-10-11T07:01:50.403Z,100
2022-10-11T07:02:52.106Z,100
2022-10-11T07:03:53.839Z,100
2022-10-11T07:04:55.581Z,100
2022-10-11T07:06:02.157Z,100
2022-10-11T07:06:59.038Z,100
2022-10-11T07:08:00.780Z,100
2022-10-11T07:09:02.508Z,100
2022-10-11T07:10:04.244Z,100
2022-10-11T07:11:05.978Z,100
2022-10-11T07:12:07.715Z,100
2022-10-11T07:13:12.534Z,100
2022-10-11T07:14:11.178Z,100
2022-10-11T07:15:12.918Z,100
2022-10-11T07:16:14.659Z,100
2022-10-11T07:17:16.399Z,100
2022-10-11T07:18:18.124Z,100
2022-10-11T07:19:19.861Z,100
2022-10-11T07:20:21.641Z,100
2022-10-11T07:21:23.322Z,100
2022-10-11T07:22:25.071Z,100
2022-10-11T07:23:26.792Z,100
2022-10-11T07:24:28.532Z,100
2022-10-11T07:25:30.287Z,100
2022-10-11T07:26:37.678Z,100
2022-10-11T07:27:33.743Z,100
2022-10-11T07:28:35.505Z,100
2022-10-11T07:29:37.201Z,100
2022-10-11T07:30:38.953Z,100
2022-10-11T07:31:40.678Z,100
2022-10-11T07:32:42.415Z,100
2022-10-11T07:33:44.154Z,100
2022-10-11T07:34:45.882Z,100
2022-10-11T07:35:48.531Z,100
2022-10-11T07:36:49.357Z,100
2022-10-11T07:37:51.098Z,100
2022-10-11T07:38:52.827Z,100
2022-10-11T07:39:54.586Z,100
2022-10-11T07:40:56.301Z,100
2022-10-11T07:41:58.039Z,100
2022-10-11T07:42:59.771Z,100
2022-10-11T07:44:01.504Z,100
2022-10-11T07:45:03.235Z,100
2022-10-11T07:46:05.475Z,100
2022-10-11T07:47:11.057Z,100
2022-10-11T07:48:08.433Z,100
2022-10-11T07:49:10.185Z,100
2022-10-11T07:50:11.918Z,100
2022-10-11T07:51:13.632Z,100
2022-10-11T07:52:15.370Z,100
2022-10-11T07:53:17.121Z,100
2022-10-11T07:54:18.842Z,100
2022-10-11T07:55:20.593Z,100
2022-10-11T07:56:22.320Z,100
2022-10-11T07:57:24.067Z,100
2022-10-11T07:58:25.794Z,100
2022-10-11T07:59:27.523Z,100
2022-10-11T08:00:29.306Z,100
2022-10-11T08:01:31.162Z,100
2022-10-11T08:02:32.771Z,100
2022-10-11T08:03:34.475Z,100
2022-10-11T08:04:36.208Z,100
2022-10-11T08:05:37.927Z,100
2022-10-11T08:06:39.676Z,100
2022-10-11T08:07:41.401Z,100
2022-10-11T08:08:43.142Z,100
2022-10-11T08:09:44.866Z,100
2022-10-11T08:10:46.616Z,100
2022-10-11T08:11:48.331Z,100
2022-10-11T08:12:50.081Z,100
2022-10-11T08:13:51.825Z,100
2022-10-11T08:14:53.544Z,100
2022-10-11T08:15:55.349Z,100
2022-10-11T08:16:57.034Z,100
2022-10-11T08:17:58.761Z,100
2022-10-11T08:19:00.488Z,100
2022-10-11T08:20:02.227Z,100
2022-10-11T08:21:03.968Z,100
2022-10-11T08:22:05.693Z,100
2022-10-11T08:23:07.431Z,100
2022-10-11T08:24:09.171Z,100
2022-10-11T08:25:10.910Z,100
2022-10-11T08:26:12.666Z,100
2022-10-11T08:27:14.372Z,100
2022-10-11T08:28:16.199Z,100
2022-10-11T08:29:17.843Z,100
2022-10-11T08:30:19.638Z,100
2022-10-11T08:31:21.333Z,100
2022-10-11T08:32:23.051Z,100
2022-10-11T08:33:24.780Z,95.46
2022-10-11T08:34:26.507Z,97.52
2022-10-11T08:35:28.282Z,99.57
2022-10-11T08:36:30.039Z,82.95
2022-10-11T08:37:31.723Z,85.97
2022-10-11T08:38:33.463Z,83.91
2022-10-11T08:39:35.193Z,86.21
2022-10-11T08:40:36.937Z,88.1
2022-10-11T08:41:38.662Z,84.01
2022-10-11T08:42:40.392Z,83.99
2022-10-11T08:43:42.136Z,84.99
2022-10-11T08:45:09.625Z,79.51
2022-10-11T08:45:45.608Z,80.02
2022-10-11T08:46:47.347Z,80.36
2022-10-11T08:47:49.067Z,82.49
2022-10-11T08:48:50.803Z,81.93
2022-10-11T08:49:52.530Z,73
2022-10-11T08:50:54.280Z,75.24
2022-10-11T08:51:56.011Z,75.08
2022-10-11T08:52:57.755Z,73.84
2022-10-11T08:54:03.451Z,74.25
2022-10-11T08:55:01.238Z,75.83
2022-10-11T08:56:03.237Z,76.93
2022-10-11T08:57:04.697Z,75.23
2022-10-11T08:58:06.422Z,76.66
2022-10-11T08:59:08.194Z,75.95
2022-10-11T09:00:09.897Z,76.82
2022-10-11T09:01:11.688Z,76.37
2022-10-11T09:02:13.369Z,74.92
2022-10-11T09:03:15.096Z,77.13
2022-10-11T09:04:16.826Z,77.29
2022-10-11T09:05:18.566Z,78.3
2022-10-11T09:06:20.297Z,77.68
2022-10-11T09:07:22.050Z,73.59
2022-10-11T09:08:23.778Z,74.88
2022-10-11T09:09:25.499Z,76.48
2022-10-11T09:10:27.261Z,76.06
2022-10-11T09:11:28.971Z,76.41
2022-10-11T09:12:33.503Z,78.11
2022-10-11T09:13:32.441Z,78.46
2022-10-11T09:14:34.182Z,79.57
2022-10-11T09:15:35.935Z,82.11
2022-10-11T09:16:37.634Z,82.08
2022-10-11T09:17:39.385Z,81.05
2022-10-11T09:18:41.119Z,82.24
2022-10-11T09:19:42.852Z,84.64
2022-10-11T09:20:44.588Z,80.1
2022-10-11T09:21:46.323Z,84.31
2022-10-11T09:22:48.059Z,84.52
2022-10-11T09:23:49.787Z,82.8
2022-10-11T09:24:51.510Z,79.9
2022-10-11T09:25:53.258Z,80.84
2022-10-11T09:26:54.994Z,81.42
2022-10-11T09:28:02.692Z,80.11
2022-10-11T09:29:01.220Z,82.57
2022-10-11T09:30:00.217Z,81.74
2022-10-11T09:31:01.953Z,84.44
2022-10-11T09:32:03.679Z,81.31
2022-10-11T09:33:05.413Z,82.18
2022-10-11T09:34:07.146Z,83.08
2022-10-11T09:35:08.876Z,79.92
2022-10-11T09:36:10.612Z,83.31
2022-10-11T09:37:12.350Z,83.12
2022-10-11T09:38:14.081Z,78.88
2022-10-11T09:39:15.817Z,82.38
2022-10-11T09:40:17.558Z,85.73
2022-10-11T09:41:19.279Z,83.13
2022-10-11T09:42:21.022Z,83.56
2022-10-11T09:43:22.775Z,85.73
2022-10-11T09:44:24.495Z,85.7
2022-10-11T09:45:26.243Z,87.28
2022-10-11T09:46:27.962Z,88.12
2022-10-11T09:47:29.693Z,86.38
2022-10-11T09:48:31.428Z,84.88
2022-10-11T09:49:33.166Z,87.77
2022-10-11T09:50:34.914Z,85.01
2022-10-11T09:51:36.653Z,84.54
2022-10-11T09:52:38.364Z,85.05
2022-10-11T09:53:40.090Z,86.05
2022-10-11T09:54:41.841Z,88.45
2022-10-11T09:55:43.571Z,89.58
2022-10-11T09:56:45.323Z,90.07
2022-10-11T09:57:47.040Z,91.2
2022-10-11T09:58:48.773Z,86.64
2022-10-11T09:59:50.747Z,89.69
2022-10-11T10:00:52.255Z,89.48
2022-10-11T10:01:54.041Z,88.05
2022-10-11T10:02:55.736Z,83.94
2022-10-11T10:03:57.457Z,86.79
2022-10-11T10:04:59.191Z,90.84
2022-10-11T10:06:00.921Z,90.46
2022-10-11T10:07:02.660Z,81.95
2022-10-11T10:08:05.021Z,78.24
2022-10-11T10:09:06.164Z,77.64
2022-10-11T10:10:07.867Z,80.04
2022-10-11T10:11:09.598Z,82.86
2022-10-11T10:12:11.341Z,84.93
2022-10-11T10:13:13.077Z,84.12
2022-10-11T10:14:14.809Z,83.4
2022-10-11T10:15:16.581Z,85.02
2022-10-11T10:16:18.269Z,79.93
2022-10-11T10:17:20.017Z,83.12
2022-10-11T10:18:21.767Z,81.83
2022-10-11T10:19:23.487Z,76.86
2022-10-11T10:20:25.248Z,79.8
2022-10-11T10:21:26.936Z,74.92
2022-10-11T10:22:28.679Z,75.31
2022-10-11T10:23:30.438Z,78.81
2022-10-11T10:24:32.142Z,78.7
2022-10-11T10:25:33.898Z,74.91
2022-10-11T10:26:35.611Z,78.08
2022-10-11T10:27:37.359Z,80.62
2022-10-11T10:28:39.159Z,80.63
2022-10-11T10:29:40.838Z,82.36
2022-10-11T10:30:42.580Z,80.17
2022-10-11T10:32:09.144Z,75.7
2022-10-11T10:32:48.471Z,78.75
2022-10-11T10:33:47.816Z,78.18
2022-10-11T10:34:49.576Z,77.4
2022-10-11T10:35:51.236Z,77.61
2022-10-11T10:36:52.971Z,77.7
2022-10-11T10:37:54.723Z,78.79
2022-10-11T10:38:56.445Z,72.14
2022-10-11T10:39:58.183Z,71.37
2022-10-11T10:40:59.915Z,73.58
2022-10-11T10:42:01.642Z,72.91
2022-10-11T10:43:03.394Z,72.17
2022-10-11T10:44:05.121Z,71.8
2022-10-11T10:45:11.316Z,71.94
2022-10-11T10:46:08.960Z,71.29
2022-10-11T10:47:10.337Z,68.14
2022-10-11T10:48:12.064Z,72.22
2022-10-11T10:49:52.678Z,68.48
2022-10-11T10:50:15.603Z,63.46
2022-10-11T10:51:17.270Z,62.53
2022-10-11T10:52:19.000Z,66.46
2022-10-11T10:53:20.740Z,66.41
2022-10-11T10:54:22.493Z,60.24
2022-10-11T10:55:24.451Z,66.3
2022-10-11T10:56:25.936Z,69.04
2022-10-11T10:57:27.687Z,68.09
2022-10-11T10:58:29.414Z,63.04
2022-10-11T10:59:31.146Z,63.49
2022-10-11T11:00:32.925Z,63.97
2022-10-11T11:01:34.653Z,64.5
2022-10-11T11:02:40.923Z,64.22
2022-10-11T11:03:38.110Z,63.58
2022-10-11T11:04:39.828Z,65.86
2022-10-11T11:05:41.589Z,67.94
2022-10-11T11:06:43.304Z,68.65
2022-10-11T11:07:45.059Z,61.01
2022-10-11T11:08:46.781Z,62.09
2022-10-11T11:09:48.508Z,63.78
2022-10-11T11:10:50.252Z,62.46
2022-10-11T11:11:51.981Z,65.25
2022-10-11T11:12:53.723Z,65.54
2022-10-11T11:13:55.457Z,67.6
2022-10-11T11:14:57.186Z,67.33
2022-10-11T11:15:58.913Z,67.8
2022-10-11T11:17:00.656Z,66.86
2022-10-11T11:18:02.397Z,66.13
2022-10-11T11:19:04.405Z,64.51
2022-10-11T11:20:05.895Z,64.72
2022-10-11T11:21:07.592Z,63.83
2022-10-11T11:22:09.326Z,66.57
2022-10-11T11:23:11.079Z,66.65
2022-10-11T11:24:12.806Z,61.43
2022-10-11T11:25:14.532Z,66.27
2022-10-11T11:26:16.285Z,65.97
2022-10-11T11:27:18.019Z,68.01
2022-10-11T11:28:19.857Z,63.04
2022-10-11T11:29:21.470Z,67.49
2022-10-11T11:30:23.230Z,67.67
2022-10-11T11:31:26.622Z,65.95
2022-10-11T11:32:26.679Z,67.23
2022-10-11T11:33:28.415Z,67.98
2022-10-11T11:34:30.146Z,67.08
2022-10-11T11:35:31.897Z,65.22
2022-10-11T11:36:33.620Z,66.57
2022-10-11T11:37:35.362Z,67.01
2022-10-11T11:38:37.100Z,67.29
2022-10-11T11:39:38.833Z,63.1
2022-10-11T11:40:40.589Z,65.3
2022-10-11T11:41:42.309Z,67.36
2022-10-11T11:42:44.027Z,66.66
2022-10-11T11:43:45.799Z,69.09
2022-10-11T11:44:47.502Z,70.33
2022-10-11T11:45:49.278Z,67.03
2022-10-11T11:46:50.977Z,66.02
2022-10-11T11:47:52.716Z,68.9
2022-10-11T11:48:54.447Z,70.26
2022-10-11T11:49:56.182Z,69.7
2022-10-11T11:50:58.239Z,69.96
2022-10-11T11:51:59.650Z,71.03
2022-10-11T11:53:01.380Z,71.06
2022-10-11T11:54:03.110Z,71.14
2022-10-11T11:55:04.846Z,70.28
2022-10-11T11:56:06.585Z,72.02
2022-10-11T11:57:08.335Z,70.71
2022-10-11T11:58:10.055Z,72.16
2022-10-11T11:59:11.790Z,73.15
2022-10-11T12:00:13.536Z,72.7
2022-10-11T12:01:15.264Z,72.19
2022-10-11T12:02:17.090Z,73.6
2022-10-11T12:03:18.738Z,72.7
2022-10-11T12:04:20.470Z,73.47
2022-10-11T12:05:22.198Z,72.25
2022-10-11T12:06:24.021Z,69.69
2022-10-11T12:07:25.672Z,69.96
2022-10-11T12:08:27.403Z,74.81
2022-10-11T12:09:29.133Z,74.11
2022-10-11T12:10:30.865Z,74.8
2022-10-11T12:11:35.482Z,74.93
2022-10-11T12:12:34.464Z,73.99
2022-10-11T12:13:36.070Z,73.13
2022-10-11T12:14:37.821Z,73.68
2022-10-11T12:15:39.547Z,74.34
2022-10-11T12:16:41.269Z,73.14
2022-10-11T12:17:43.028Z,72.07
2022-10-11T12:18:44.760Z,72.5
2022-10-11T12:19:46.501Z,72.62
2022-10-11T12:20:48.236Z,73.3
2022-10-11T12:21:49.979Z,72.62
2022-10-11T12:22:51.732Z,72.19
2022-10-11T12:23:53.437Z,72.81
2022-10-11T12:24:55.177Z,72.66
2022-10-11T12:25:56.901Z,72.05
2022-10-11T12:26:58.645Z,73.99
2022-10-11T12:28:00.377Z,75.24
2022-10-11T12:29:02.122Z,72.33
2022-10-11T12:30:03.869Z,70.82
2022-10-11T12:31:06.089Z,73.22
2022-10-11T12:32:07.324Z,70.7
2022-10-11T12:33:09.068Z,71.8
2022-10-11T12:34:10.799Z,68.4
2022-10-11T12:35:12.551Z,72.06
2022-10-11T12:36:14.658Z,72.49
2022-10-11T12:37:15.998Z,71.7
2022-10-11T12:38:17.766Z,70.94
2022-10-11T12:39:19.480Z,71.87
2022-10-11T12:40:21.195Z,70.83
2022-10-11T12:41:22.929Z,70.81
2022-10-11T12:42:24.660Z,68.57
2022-10-11T12:43:26.415Z,70.63
2022-10-11T12:44:28.141Z,69.58
2022-10-11T12:45:29.868Z,72.62
2022-10-11T12:46:31.612Z,72.92
2022-10-11T12:47:33.338Z,72.71
2022-10-11T12:48:40.022Z,72.35
2022-10-11T12:49:36.806Z,72.42
2022-10-11T12:50:38.542Z,73.11
2022-10-11T12:51:40.271Z,70.85
2022-10-11T12:52:42.017Z,71.61
2022-10-11T12:53:43.768Z,71.48
2022-10-11T12:54:45.490Z,71.82
2022-10-11T12:55:47.220Z,72.18
2022-10-11T12:56:48.953Z,68.69
2022-10-11T12:57:50.684Z,68.81
2022-10-11T12:58:52.438Z,69.43
2022-10-11T12:59:54.161Z,70.07
2022-10-11T13:00:55.983Z,71.72
2022-10-11T13:01:57.631Z,71.56
2022-10-11T13:02:59.350Z,71.71
2022-10-11T13:04:01.093Z,71.27
2022-10-11T13:05:02.822Z,70.99
2022-10-11T13:06:04.559Z,70.94
2022-10-11T13:07:06.986Z,70.12
2022-10-11T13:08:08.045Z,69.73
2022-10-11T13:09:09.794Z,68.79
2022-10-11T13:10:11.528Z,68.45
2022-10-11T13:11:13.287Z,68.6
2022-10-11T13:12:14.978Z,69.99
2022-10-11T13:13:16.725Z,68.96
2022-10-11T13:14:18.450Z,68.12
2022-10-11T13:15:20.177Z,68.92
2022-10-11T13:16:21.921Z,70.76
2022-10-11T13:17:23.651Z,69.39
2022-10-11T13:18:25.438Z,63.24
2022-10-11T13:19:27.221Z,63.65
2022-10-11T13:20:28.855Z,66.23
2022-10-11T13:21:30.603Z,62.51
2022-10-11T13:22:32.398Z,64.06
2022-10-11T13:23:34.113Z,64.78
2022-10-11T13:24:35.806Z,62.85
2022-10-11T13:25:37.530Z,63.96
2022-10-11T13:26:39.288Z,65.75
2022-10-11T13:27:40.989Z,66.13
2022-10-11T13:28:42.789Z,66.96
2022-10-11T13:29:44.490Z,66.97
2022-10-11T13:30:46.222Z,67.84
2022-10-11T13:31:47.957Z,69.77
2022-10-11T13:32:49.679Z,70.71
2022-10-11T13:33:51.415Z,69.66
2022-10-11T13:34:53.269Z,68.15
2022-10-11T13:35:54.921Z,68.18
2022-10-11T13:36:56.624Z,65.92
2022-10-11T13:37:58.351Z,62.33
2022-10-11T13:39:00.097Z,64.94
2022-10-11T13:40:01.824Z,66.04
2022-10-11T13:41:03.563Z,67.57
2022-10-11T13:42:05.297Z,67.22
2022-10-11T13:43:07.035Z,66.02
2022-10-11T13:44:08.757Z,66.82
2022-10-11T13:45:10.503Z,66.4
2022-10-11T13:46:12.259Z,65.81
2022-10-11T13:47:13.967Z,64.22
2022-10-11T13:48:15.713Z,62.92
2022-10-11T13:49:17.424Z,63.94
2022-10-11T13:50:19.165Z,59.93